»·PEaware :: N918TB KBZN-KGEG

N918TB :: KBZN-KGEG

FLIGHT INFORMATION

Flight Status: Arrived
Operator: Privately registered:
United States
More flights under this callsign
Pilot: Adam R. (28816)
Aircraft: SOCATA TBM-900
(TBM9)
More flights by this aircraft type
Origin: KBZN Gallatin
United States
Destination: KGEG Spokane Intl
United States
More flights between these airports :: More routes between these airports
Route: HIA5 HIA MLP HILIE
File this flight plan on PilotEdge
Remarks:
Altitude:
(Current/Filed)
30,000ft
Speed:
(Current/Filed)
320kts
Departed: 04-Apr-20 07:00 PM
Arrived: 04-Apr-20 08:22 PM
Distance/Time
Traveled:
285nm/1:21
Distance/Time
To Go:
Arrived

Flight Plot

Page will automatically refresh every two minutes.

Flight plan parsing failed; only flown route is shown


Map Options




Map Legend


Flown Route
Filed Route
Departure Airport
Arrival Airport
Navaid (VOR, NDB)
Fix

Horizontal Profiles

Position Reports

Time Latitude Longitude Heading Altitude Ground
Speed
04-Apr-20 18:38 45.772880 -111.152016 315 4463ft 0kts
04-Apr-20 18:39 45.772880 -111.152016 315 4463ft 0kts
04-Apr-20 18:40 45.772751 -111.151943 20 4463ft 1kts
04-Apr-20 18:41 45.772710 -111.151988 41 4463ft 0kts
04-Apr-20 18:42 45.772718 -111.151978 40 4463ft 0kts
04-Apr-20 18:43 45.772718 -111.151978 40 4463ft 0kts
04-Apr-20 18:44 45.772718 -111.151978 40 4463ft 0kts
04-Apr-20 18:45 45.772718 -111.151978 40 4463ft 0kts
04-Apr-20 18:46 45.772718 -111.151978 40 4463ft 0kts
04-Apr-20 18:47 45.772718 -111.151978 40 4463ft 0kts
04-Apr-20 18:48 45.772718 -111.151978 40 4463ft 0kts
04-Apr-20 18:49 45.772718 -111.151978 40 4463ft 0kts
04-Apr-20 18:50 45.772718 -111.151978 40 4463ft 0kts
04-Apr-20 18:51 45.772827 -111.151814 58 4463ft 4kts
04-Apr-20 18:52 45.774702 -111.152020 315 4459ft 15kts
04-Apr-20 18:52 45.777819 -111.156362 315 4453ft 20kts
04-Apr-20 18:54 45.782632 -111.163064 315 4443ft 20kts
04-Apr-20 18:55 45.785568 -111.167560 315 4434ft 0kts
04-Apr-20 18:55 45.785568 -111.167560 315 4434ft 0kts
04-Apr-20 18:56 45.785911 -111.167809 331 4434ft 8kts
04-Apr-20 18:58 45.787372 -111.167334 46 4430ft 0kts
04-Apr-20 18:58 45.787372 -111.167334 46 4430ft 0kts
04-Apr-20 18:59 45.783468 -111.160141 131 4458ft 105kts
04-Apr-20 19:00 45.759703 -111.126149 131 6211ft 128kts
04-Apr-20 19:01 45.732538 -111.098728 201 8010ft 140kts
04-Apr-20 19:02 45.725845 -111.153444 264 10189ft 146kts
04-Apr-20 19:03 45.726555 -111.210508 264 12183ft 142kts
04-Apr-20 19:04 45.727277 -111.268018 264 14496ft 145kts
04-Apr-20 19:05 45.718060 -111.321178 239 16653ft 139kts
04-Apr-20 19:06 45.698912 -111.372137 238 18005ft 176kts
04-Apr-20 19:07 45.670187 -111.446777 239 17802ft 234kts
04-Apr-20 19:08 45.683168 -111.539886 287 17795ft 263kts
04-Apr-20 19:09 45.711301 -111.637894 287 17787ft 268kts
04-Apr-20 19:10 45.739819 -111.737769 286 17780ft 271kts
04-Apr-20 19:11 45.768403 -111.838288 286 17766ft 271kts
04-Apr-20 19:12 45.796900 -111.938908 286 17763ft 271kts
04-Apr-20 19:13 45.825223 -112.039338 286 17763ft 271kts
04-Apr-20 19:14 45.853501 -112.140020 286 17763ft 271kts
04-Apr-20 19:15 45.893076 -112.233852 299 17763ft 277kts
04-Apr-20 19:16 45.937421 -112.325026 299 17763ft 277kts
04-Apr-20 19:17 45.981675 -112.416365 299 17763ft 277kts
04-Apr-20 19:18 46.025725 -112.507584 299 17763ft 277kts
04-Apr-20 19:19 46.070116 -112.599799 299 17763ft 277kts
04-Apr-20 19:20 46.114175 -112.691632 298 17760ft 277kts
04-Apr-20 19:21 46.158060 -112.783396 298 17760ft 277kts
04-Apr-20 19:22 46.201835 -112.875272 298 17760ft 278kts
04-Apr-20 19:23 46.245830 -112.967882 299 17760ft 280kts
04-Apr-20 19:24 46.290627 -113.062409 299 17761ft 284kts
04-Apr-20 19:25 46.335688 -113.157917 299 17761ft 287kts
04-Apr-20 19:26 46.380845 -113.253936 299 17761ft 287kts
04-Apr-20 19:27 46.426074 -113.350437 299 17761ft 288kts
04-Apr-20 19:28 46.471099 -113.446834 299 17761ft 288kts
04-Apr-20 19:29 46.516118 -113.543556 299 17761ft 288kts
04-Apr-20 19:30 46.561064 -113.640458 299 17761ft 288kts
04-Apr-20 19:31 46.605943 -113.737546 298 17763ft 288kts
04-Apr-20 19:32 46.650762 -113.834846 298 17763ft 288kts
04-Apr-20 19:33 46.695430 -113.932161 298 17763ft 288kts
04-Apr-20 19:34 46.740032 -114.029669 298 17763ft 288kts
04-Apr-20 19:35 46.784525 -114.127284 298 17763ft 288kts
04-Apr-20 19:36 46.829097 -114.225417 298 17763ft 288kts
04-Apr-20 19:37 46.873362 -114.323223 298 17763ft 288kts
04-Apr-20 19:38 46.917667 -114.421447 298 17764ft 287kts
04-Apr-20 19:39 46.961400 -114.518768 298 17763ft 283kts
04-Apr-20 19:40 47.004724 -114.615516 298 17762ft 280kts
04-Apr-20 19:41 47.047292 -114.710906 297 17765ft 276kts
04-Apr-20 19:42 47.088114 -114.802608 297 17755ft 250kts
04-Apr-20 19:43 47.123859 -114.883256 296 17753ft 224kts
04-Apr-20 19:44 47.161775 -114.969138 297 17769ft 267kts
04-Apr-20 19:45 47.203388 -115.063556 298 17761ft 276kts
04-Apr-20 19:46 47.245435 -115.159308 298 17760ft 279kts
04-Apr-20 19:47 47.288042 -115.256678 298 17760ft 281kts
04-Apr-20 19:48 47.330254 -115.353489 298 17760ft 282kts
04-Apr-20 19:49 47.371727 -115.448955 298 17762ft 282kts
04-Apr-20 19:50 47.414280 -115.547232 298 17776ft 282kts
04-Apr-20 19:51 47.455855 -115.645961 286 17762ft 278kts
04-Apr-20 19:52 47.463949 -115.758229 271 17781ft 273kts
04-Apr-20 19:53 47.470918 -115.871086 271 17780ft 273kts
04-Apr-20 19:54 47.477801 -115.984264 271 17780ft 273kts
04-Apr-20 19:55 47.484513 -116.096439 271 17752ft 273kts
04-Apr-20 19:56 47.491166 -116.209594 271 17651ft 273kts
04-Apr-20 19:57 47.497699 -116.322752 271 16638ft 275kts
04-Apr-20 19:58 47.504181 -116.436853 271 15624ft 276kts
04-Apr-20 19:59 47.510553 -116.550981 271 14611ft 276kts
04-Apr-20 20:00 47.516807 -116.665126 271 13600ft 277kts
04-Apr-20 20:01 47.507431 -116.775772 248 12587ft 272kts
04-Apr-20 20:02 47.482991 -116.882515 249 11586ft 273kts
04-Apr-20 20:03 47.469813 -116.940360 250 11042ft 272kts
04-Apr-20 20:04 47.445641 -117.046246 248 10037ft 275kts
04-Apr-20 20:05 47.420722 -117.154599 248 9036ft 280kts
04-Apr-20 20:06 47.396335 -117.260242 248 8980ft 264kts
04-Apr-20 20:07 47.372727 -117.362001 248 8967ft 253kts
04-Apr-20 20:08 47.350448 -117.457573 247 8948ft 242kts
04-Apr-20 20:09 47.352579 -117.546160 313 8732ft 231kts
04-Apr-20 20:10 47.399845 -117.614818 314 7950ft 240kts
04-Apr-20 20:11 47.447566 -117.684156 314 6903ft 231kts
04-Apr-20 20:12 47.457037 -117.697976 315 6469ft 220kts
04-Apr-20 20:13 47.457037 -117.697976 315 6469ft 220kts
04-Apr-20 20:14 47.457037 -117.697976 315 6469ft 220kts
04-Apr-20 20:15 47.476722 -117.724242 335 5516ft 204kts
04-Apr-20 20:16 47.519939 -117.685183 42 3975ft 176kts
04-Apr-20 20:17 47.549784 -117.640493 42 3636ft 127kts
04-Apr-20 20:18 47.573112 -117.605679 42 3490ft 103kts
04-Apr-20 20:19 47.593289 -117.575356 42 2954ft 102kts
04-Apr-20 20:20 47.612385 -117.546625 45 2377ft 70kts
04-Apr-20 20:21 47.618102 -117.537308 91 2366ft 16kts
04-Apr-20 20:22 47.618015 -117.534832 88 2366ft 13kts
04-Apr-20 20:23 47.621383 -117.529357 99 2356ft 12kts
04-Apr-20 20:24 47.620827 -117.528421 226 2357ft 0kts
04-Apr-20 20:25 47.620827 -117.528421 226 2357ft 0kts

Navigation Log

Ident Type
Flight plan parsing failed, navigation log unavailable